Time;durP1;ratioP1;P1;durP2;ratioP2;P2;SDS_P1;SDS_P2;PMS_P1;PMS_P2;Temp;Humidity;BMP_temperature;BMP_pressure;BME280_temperature;BME280_humidity;BME280_pressure;Samples;Min_cycle;Max_cycle;Signal;HPM_P1;HPM_P2
2022/06/25 00:01:21;;;;;;;;;;;17.60;99.90;;;;;;5053105;28;19924;-65
2022/06/25 00:03:47;;;;;;;;;;;17.70;99.90;;;;;;5052486;28;19932;-65
2022/06/25 00:06:14;;;;;;;;;;;17.70;99.90;;;;;;5052260;28;19932;-65
2022/06/25 00:08:41;;;;;;;;;;;17.80;99.90;;;;;;5052494;28;19927;-65
2022/06/25 00:12:31;;;;;;;;;;;17.80;99.90;;;;;;5051865;28;20372;-65
2022/06/25 00:13:55;;;;;;;;;;;17.80;99.90;;;;;;5051897;28;19931;-65
2022/06/25 00:16:22;;;;;;;;;;;17.80;99.90;;;;;;5052370;28;19924;-65
2022/06/25 00:18:48;;;;;;;;;;;17.90;99.90;;;;;;5052288;28;19982;-65
2022/06/25 00:21:15;;;;;;;;;;;17.90;99.90;;;;;;5052280;28;19971;-65
2022/06/25 00:23:42;;;;;;;;;;;17.90;99.90;;;;;;5052079;28;19925;-64
2022/06/25 00:26:10;;;;;;;;;;;17.90;99.90;;;;;;5052211;28;19925;-65
2022/06/25 00:28:37;;;;;;;;;;;18.00;99.90;;;;;;5052251;28;20320;-65
2022/06/25 00:31:04;;;;;;;;;;;18.00;99.90;;;;;;5052187;28;20004;-65
2022/06/25 00:33:30;;;;;;;;;;;18.00;99.90;;;;;;5052024;28;19964;-65
2022/06/25 00:35:57;;;;;;;;;;;17.90;99.90;;;;;;5051981;28;19936;-65
2022/06/25 00:38:24;;;;;;;;;;;17.90;99.90;;;;;;5051831;28;19925;-65
2022/06/25 00:40:51;;;;;;;;;;;17.90;99.90;;;;;;5051680;28;20027;-65
2022/06/25 00:43:19;;;;;;;;;;;17.90;99.90;;;;;;5052127;28;19928;-65
2022/06/25 00:45:46;;;;;;;;;;;17.90;99.90;;;;;;5051690;28;19928;-64
2022/06/25 00:48:13;;;;;;;;;;;17.90;99.90;;;;;;5051897;28;19925;-65
2022/06/25 00:50:40;;;;;;;;;;;18.00;99.90;;;;;;5051498;28;19924;-65
2022/06/25 00:53:09;;;;;;;;;;;18.00;99.90;;;;;;5051612;28;19956;-65
2022/06/25 00:55:38;;;;;;;;;;;17.90;99.90;;;;;;5051339;28;19932;-65
2022/06/25 00:58:07;;;;;;;;;;;18.00;99.90;;;;;;5051534;28;19931;-65
2022/06/25 01:00:35;;;;;;;;;;;17.90;99.90;;;;;;5051269;28;19932;-65
2022/06/25 01:03:02;;;;;;;;;;;17.90;99.90;;;;;;5050930;28;19932;-65
2022/06/25 01:05:29;;;;;;;;;;;17.80;99.90;;;;;;5051026;28;19924;-65
2022/06/25 01:07:56;;;;;;;;;;;17.80;99.90;;;;;;5051555;28;20388;-65
2022/06/25 01:10:23;;;;;;;;;;;17.80;99.90;;;;;;5051157;28;19935;-65
2022/06/25 01:12:50;;;;;;;;;;;17.80;99.90;;;;;;5051518;28;19932;-65
2022/06/25 01:15:18;;;;;;;;;;;17.80;99.90;;;;;;5050784;28;19971;-65
2022/06/25 01:17:47;;;;;;;;;;;17.70;99.90;;;;;;5051398;28;19995;-65
2022/06/25 01:20:15;;;;;;;;;;;17.70;99.90;;;;;;5050964;28;19925;-65
2022/06/25 01:22:44;;;;;;;;;;;17.70;99.90;;;;;;5050801;28;19924;-65
2022/06/25 01:25:11;;;;;;;;;;;17.70;99.90;;;;;;5051029;28;19925;-65
2022/06/25 01:27:38;;;;;;;;;;;17.70;99.90;;;;;;5050432;28;19925;-65
2022/06/25 01:30:06;;;;;;;;;;;17.60;99.90;;;;;;5051013;28;19929;-65
2022/06/25 01:32:33;;;;;;;;;;;17.60;99.90;;;;;;5051217;28;19979;-65
2022/06/25 01:35:00;;;;;;;;;;;17.70;99.90;;;;;;5050532;28;19978;-65
2022/06/25 01:37:27;;;;;;;;;;;17.70;99.90;;;;;;5050833;28;20003;-65
2022/06/25 01:39:55;;;;;;;;;;;17.80;99.90;;;;;;5050826;28;19928;-65
2022/06/25 01:45:03;;;;;;;;;;;17.80;99.90;;;;;;5037550;28;19921;-65
2022/06/25 01:47:30;;;;;;;;;;;17.80;99.90;;;;;;5050637;28;19990;-66
2022/06/25 01:49:57;;;;;;;;;;;17.80;99.90;;;;;;5050511;28;19925;-65
2022/06/25 01:52:26;;;;;;;;;;;17.70;99.90;;;;;;5050287;28;20390;-65
2022/06/25 01:54:52;;;;;;;;;;;17.70;99.90;;;;;;5050411;28;19925;-65
2022/06/25 01:57:21;;;;;;;;;;;17.70;99.90;;;;;;5050824;28;19929;-65
2022/06/25 01:59:49;;;;;;;;;;;17.60;99.90;;;;;;5050756;28;19928;-65
2022/06/25 02:02:16;;;;;;;;;;;17.60;99.90;;;;;;5050597;28;19931;-65
2022/06/25 02:04:43;;;;;;;;;;;17.60;99.90;;;;;;5050413;28;20031;-65
2022/06/25 02:07:10;;;;;;;;;;;17.60;99.90;;;;;;5050345;28;19924;-64
2022/06/25 02:09:37;;;;;;;;;;;17.60;99.90;;;;;;5050421;28;20355;-65
2022/06/25 02:12:04;;;;;;;;;;;17.50;99.90;;;;;;5050409;28;19925;-65
2022/06/25 02:14:32;;;;;;;;;;;17.50;99.90;;;;;;5050000;28;19960;-65
2022/06/25 02:17:00;;;;;;;;;;;17.50;99.90;;;;;;5050298;28;19963;-65
2022/06/25 02:19:26;;;;;;;;;;;17.50;99.90;;;;;;5050190;28;20361;-65
2022/06/25 02:21:53;;;;;;;;;;;17.50;99.90;;;;;;5050320;28;19986;-65
2022/06/25 02:24:20;;;;;;;;;;;17.50;99.90;;;;;;5049916;28;19924;-65
2022/06/25 02:26:47;;;;;;;;;;;17.40;99.90;;;;;;5050549;28;19925;-65
2022/06/25 02:29:14;;;;;;;;;;;17.40;99.90;;;;;;5050083;28;19929;-65
2022/06/25 02:31:42;;;;;;;;;;;17.40;99.90;;;;;;5050317;28;20304;-65
2022/06/25 02:34:09;;;;;;;;;;;17.40;99.90;;;;;;5049968;28;19960;-65
2022/06/25 02:36:36;;;;;;;;;;;17.40;99.90;;;;;;5050087;28;19967;-65
2022/06/25 02:39:07;;;;;;;;;;;17.40;99.90;;;;;;5050279;28;19932;-65
2022/06/25 02:41:34;;;;;;;;;;;17.30;99.90;;;;;;5050322;28;19967;-65
2022/06/25 02:44:01;;;;;;;;;;;17.30;99.90;;;;;;5049924;28;19970;-65
2022/06/25 02:46:45;;;;;;;;;;;17.30;99.90;;;;;;5049972;28;19924;-65
2022/06/25 02:49:12;;;;;;;;;;;17.30;99.90;;;;;;5049695;28;20277;-65
2022/06/25 02:51:39;;;;;;;;;;;17.20;99.90;;;;;;5050137;28;19929;-65
2022/06/25 02:54:06;;;;;;;;;;;17.20;99.90;;;;;;5049960;28;19925;-65
2022/06/25 02:59:18;;;;;;;;;;;17.20;99.90;;;;;;5049859;28;19920;-64
2022/06/25 03:01:54;;;;;;;;;;;17.10;99.90;;;;;;5050178;28;20003;-65
2022/06/25 03:04:24;;;;;;;;;;;17.00;99.90;;;;;;5049601;28;19935;-64
2022/06/25 03:06:54;;;;;;;;;;;16.90;99.90;;;;;;5049741;28;19929;-65
2022/06/25 03:09:21;;;;;;;;;;;16.90;99.90;;;;;;5049993;28;19924;-65
2022/06/25 03:11:48;;;;;;;;;;;16.80;99.90;;;;;;5049886;28;20392;-65
2022/06/25 03:14:15;;;;;;;;;;;16.70;99.90;;;;;;5049617;28;20366;-65
2022/06/25 03:16:42;;;;;;;;;;;16.70;99.90;;;;;;5049957;28;19924;-65
2022/06/25 03:19:15;;;;;;;;;;;16.70;99.90;;;;;;5049446;28;19925;-65
2022/06/25 03:21:46;;;;;;;;;;;16.70;99.90;;;;;;5050942;28;20356;-65
2022/06/25 03:24:14;;;;;;;;;;;16.70;99.90;;;;;;5049577;28;19924;-65
2022/06/25 03:26:41;;;;;;;;;;;16.60;99.90;;;;;;5052628;28;19931;-65
2022/06/25 03:29:07;;;;;;;;;;;16.50;99.90;;;;;;5053500;28;19924;-65
2022/06/25 03:31:37;;;;;;;;;;;16.50;99.90;;;;;;5053432;28;19925;-65
2022/06/25 03:34:25;;;;;;;;;;;16.60;99.90;;;;;;5053329;28;19925;-65
2022/06/25 03:36:52;;;;;;;;;;;16.60;99.90;;;;;;5053244;28;19928;-65
2022/06/25 03:39:19;;;;;;;;;;;16.70;99.90;;;;;;5053140;28;20007;-65
2022/06/25 03:41:47;;;;;;;;;;;16.80;99.90;;;;;;5053434;28;19947;-65
2022/06/25 03:44:23;;;;;;;;;;;16.80;99.90;;;;;;5054457;28;19925;-65
2022/06/25 03:46:55;;;;;;;;;;;16.80;99.90;;;;;;5064807;23;19924;-67
2022/06/25 03:49:22;;;;;;;;;;;16.80;99.90;;;;;;5032420;28;20398;-67
2022/06/25 03:51:54;;;;;;;;;;;16.90;99.90;;;;;;5033204;28;19925;-66
2022/06/25 03:54:21;;;;;;;;;;;16.80;99.90;;;;;;5049338;28;20385;-66
2022/06/25 03:56:48;;;;;;;;;;;16.90;99.90;;;;;;5032827;28;19925;-65
2022/06/25 03:59:16;;;;;;;;;;;16.90;99.90;;;;;;5032981;28;20423;-65
2022/06/25 04:01:43;;;;;;;;;;;17.00;99.90;;;;;;5032979;28;19925;-67
2022/06/25 04:04:11;;;;;;;;;;;17.10;99.90;;;;;;5049059;28;19961;-66
2022/06/25 04:06:38;;;;;;;;;;;17.10;99.90;;;;;;5032771;28;20023;-66
2022/06/25 04:09:06;;;;;;;;;;;17.20;99.90;;;;;;5032425;28;19979;-66
2022/06/25 04:11:33;;;;;;;;;;;17.20;99.90;;;;;;5032869;28;20023;-67
2022/06/25 04:14:02;;;;;;;;;;;17.10;99.90;;;;;;5032526;28;20015;-66
2022/06/25 04:16:29;;;;;;;;;;;17.00;99.90;;;;;;5032428;28;19929;-67
2022/06/25 04:19:00;;;;;;;;;;;17.10;99.90;;;;;;5032426;28;19948;-67
2022/06/25 04:21:33;;;;;;;;;;;17.10;99.90;;;;;;5032282;28;19931;-66
2022/06/25 04:23:59;;;;;;;;;;;17.30;99.90;;;;;;5032448;28;20021;-66
2022/06/25 04:26:30;;;;;;;;;;;17.20;99.90;;;;;;5032389;28;20308;-66
2022/06/25 04:29:06;;;;;;;;;;;17.30;99.90;;;;;;5048640;28;19925;-66
2022/06/25 04:31:37;;;;;;;;;;;17.40;99.90;;;;;;5048774;28;20404;-67
2022/06/25 04:34:06;;;;;;;;;;;17.40;99.90;;;;;;5031917;28;19932;-66
2022/06/25 04:36:33;;;;;;;;;;;17.50;99.90;;;;;;5031296;28;19925;-67
2022/06/25 04:39:13;;;;;;;;;;;17.60;99.90;;;;;;5032007;28;19925;-67
2022/06/25 04:41:41;;;;;;;;;;;17.60;99.90;;;;;;5031966;28;19932;-66
2022/06/25 04:44:17;;;;;;;;;;;17.70;99.90;;;;;;5031845;28;19925;-66
2022/06/25 04:46:45;;;;;;;;;;;17.60;99.90;;;;;;5031933;28;19929;-66
2022/06/25 04:49:12;;;;;;;;;;;17.70;99.90;;;;;;5031979;28;19925;-66
2022/06/25 04:51:43;;;;;;;;;;;17.80;99.90;;;;;;5032153;28;19960;-67
2022/06/25 04:54:11;;;;;;;;;;;17.80;99.90;;;;;;5031541;28;19932;-70
2022/06/25 04:56:44;;;;;;;;;;;18.00;99.90;;;;;;5031788;28;19964;-66
2022/06/25 04:59:12;;;;;;;;;;;17.90;99.90;;;;;;5030387;28;19993;-68
2022/06/25 05:02:03;;;;;;;;;;;17.90;99.90;;;;;;5023084;28;19924;-66
2022/06/25 05:04:56;;;;;;;;;;;18.00;99.90;;;;;;5018400;28;19936;-66
2022/06/25 05:07:24;;;;;;;;;;;18.10;99.90;;;;;;5023369;28;19933;-66
2022/06/25 05:09:50;;;;;;;;;;;18.10;99.90;;;;;;5019056;28;19925;-67
2022/06/25 05:15:08;;;;;;;;;;;18.40;99.90;;;;;;5025494;28;19925;-66
2022/06/25 05:17:35;;;;;;;;;;;18.60;99.90;;;;;;5047085;28;19925;-66
2022/06/25 05:20:03;;;;;;;;;;;18.70;99.90;;;;;;5022314;28;19956;-67
2022/06/25 05:22:30;;;;;;;;;;;18.90;99.90;;;;;;5017330;28;19930;-67
2022/06/25 05:24:58;;;;;;;;;;;19.00;99.90;;;;;;5022248;28;20353;-67
2022/06/25 05:27:27;;;;;;;;;;;19.20;99.90;;;;;;5031531;28;19925;-67
2022/06/25 05:29:54;;;;;;;;;;;19.20;99.90;;;;;;5021253;28;19925;-66
2022/06/25 05:32:21;;;;;;;;;;;19.30;99.90;;;;;;5022250;28;19933;-67
2022/06/25 05:34:49;;;;;;;;;;;19.40;99.90;;;;;;5021970;28;19925;-66
2022/06/25 05:37:15;;;;;;;;;;;19.40;99.90;;;;;;5034949;28;19933;-66
2022/06/25 05:39:42;;;;;;;;;;;19.50;99.90;;;;;;5016982;28;19937;-66
2022/06/25 05:42:11;;;;;;;;;;;19.60;99.90;;;;;;5024815;28;19936;-66
2022/06/25 05:44:39;;;;;;;;;;;19.70;99.90;;;;;;5020985;28;19925;-66
2022/06/25 05:47:06;;;;;;;;;;;19.70;99.90;;;;;;5033886;28;19944;-66
2022/06/25 05:49:32;;;;;;;;;;;19.90;99.90;;;;;;5030908;28;20363;-66
2022/06/25 05:52:00;;;;;;;;;;;20.00;99.90;;;;;;5028581;28;20356;-66
2022/06/25 05:54:26;;;;;;;;;;;20.10;99.90;;;;;;5020654;28;19926;-66
2022/06/25 05:56:53;;;;;;;;;;;20.30;99.90;;;;;;5028436;28;19925;-67
2022/06/25 05:59:20;;;;;;;;;;;20.40;99.90;;;;;;5026379;28;19929;-67
2022/06/25 06:01:48;;;;;;;;;;;20.30;99.90;;;;;;5016232;28;20066;-66
2022/06/25 06:04:15;;;;;;;;;;;20.20;99.90;;;;;;5027606;28;20389;-67
2022/06/25 06:06:42;;;;;;;;;;;20.20;99.90;;;;;;5033393;28;20470;-66
2022/06/25 06:09:08;;;;;;;;;;;20.30;99.90;;;;;;5029278;28;19975;-66
2022/06/25 06:11:35;;;;;;;;;;;20.20;99.90;;;;;;5013326;28;19925;-66
2022/06/25 06:14:02;;;;;;;;;;;20.20;99.90;;;;;;5027998;28;20336;-66
2022/06/25 06:16:28;;;;;;;;;;;20.30;99.90;;;;;;5021906;28;19937;-66
2022/06/25 06:18:57;;;;;;;;;;;20.40;99.90;;;;;;5021680;28;19925;-66
2022/06/25 06:21:24;;;;;;;;;;;20.40;99.90;;;;;;5016123;28;19937;-68
2022/06/25 06:23:50;;;;;;;;;;;20.40;99.90;;;;;;5018176;28;19929;-78
2022/06/25 06:26:17;;;;;;;;;;;20.30;99.90;;;;;;5023104;28;19924;-78
2022/06/25 06:28:44;;;;;;;;;;;20.10;99.90;;;;;;5026673;28;19925;-79
2022/06/25 06:31:11;;;;;;;;;;;20.10;99.90;;;;;;5027512;28;19932;-69
2022/06/25 06:33:38;;;;;;;;;;;20.20;99.90;;;;;;5023315;28;19926;-65
2022/06/25 06:36:06;;;;;;;;;;;20.20;99.90;;;;;;5021411;28;19949;-66
2022/06/25 06:38:33;;;;;;;;;;;20.20;99.90;;;;;;5018611;28;19948;-66
2022/06/25 06:41:00;;;;;;;;;;;20.10;99.90;;;;;;5023331;28;19929;-67
2022/06/25 06:43:26;;;;;;;;;;;20.20;99.90;;;;;;5015324;28;19933;-65
2022/06/25 06:45:53;;;;;;;;;;;20.40;99.90;;;;;;5027847;28;20388;-65
2022/06/25 06:48:20;;;;;;;;;;;20.40;99.90;;;;;;5020729;28;20416;-65
2022/06/25 06:50:47;;;;;;;;;;;20.60;99.90;;;;;;5017034;28;20356;-66
2022/06/25 06:53:15;;;;;;;;;;;20.50;99.90;;;;;;5013866;28;19925;-66
2022/06/25 06:55:42;;;;;;;;;;;20.50;99.90;;;;;;5014201;28;20281;-66
2022/06/25 06:58:08;;;;;;;;;;;20.50;99.90;;;;;;5014944;28;20348;-67
2022/06/25 07:00:35;;;;;;;;;;;20.70;99.90;;;;;;5018864;28;19925;-66
2022/06/25 07:03:02;;;;;;;;;;;20.80;99.90;;;;;;5030349;28;19925;-66
2022/06/25 07:05:29;;;;;;;;;;;20.80;99.90;;;;;;5043865;28;19925;-66
2022/06/25 07:07:55;;;;;;;;;;;21.00;99.90;;;;;;5029741;28;19928;-66
2022/06/25 07:10:24;;;;;;;;;;;21.10;99.90;;;;;;5015936;28;19929;-66
2022/06/25 07:12:50;;;;;;;;;;;21.10;99.90;;;;;;5026792;28;19925;-66
2022/06/25 07:15:17;;;;;;;;;;;21.20;99.90;;;;;;5022998;28;19933;-66
2022/06/25 07:17:44;;;;;;;;;;;21.20;99.90;;;;;;5025787;28;19971;-64
2022/06/25 07:20:11;;;;;;;;;;;21.40;99.90;;;;;;5030910;28;19932;-66
2022/06/25 07:22:38;;;;;;;;;;;21.40;99.90;;;;;;5029133;28;19925;-65
2022/06/25 07:25:05;;;;;;;;;;;21.50;99.90;;;;;;5031566;28;20388;-66
2022/06/25 07:27:33;;;;;;;;;;;21.60;99.90;;;;;;5031280;28;19924;-65
2022/06/25 07:30:00;;;;;;;;;;;21.70;99.90;;;;;;5031058;28;19929;-65
2022/06/25 07:32:27;;;;;;;;;;;21.70;99.90;;;;;;5024704;28;19925;-65
2022/06/25 07:34:54;;;;;;;;;;;21.80;99.90;;;;;;5021988;28;19925;-70
2022/06/25 07:37:20;;;;;;;;;;;21.70;99.90;;;;;;5022977;28;19979;-65
2022/06/25 07:39:47;;;;;;;;;;;21.70;99.90;;;;;;5016811;28;19925;-65
2022/06/25 07:42:14;;;;;;;;;;;21.90;99.90;;;;;;5024661;28;20454;-65
2022/06/25 07:44:42;;;;;;;;;;;21.90;99.90;;;;;;5030140;28;19937;-65
2022/06/25 07:47:09;;;;;;;;;;;22.10;99.90;;;;;;5046086;28;19925;-65
2022/06/25 07:51:56;;;;;;;;;;;22.10;99.90;;;;;;5024275;28;19968;-66
2022/06/25 07:52:21;;;;;;;;;;;22.20;99.90;;;;;;5023343;28;19925;-65
2022/06/25 07:54:48;;;;;;;;;;;22.30;99.90;;;;;;5020383;28;19921;-65
2022/06/25 07:57:15;;;;;;;;;;;22.40;99.90;;;;;;5020392;28;20447;-66
2022/06/25 07:59:44;;;;;;;;;;;22.50;99.90;;;;;;5031542;28;19925;-66
2022/06/25 08:02:10;;;;;;;;;;;22.40;99.90;;;;;;5020567;28;19969;-65
2022/06/25 08:04:37;;;;;;;;;;;22.30;99.90;;;;;;5019677;28;19929;-66
2022/06/25 08:07:04;;;;;;;;;;;22.30;99.90;;;;;;5027839;28;19929;-65
2022/06/25 08:09:31;;;;;;;;;;;22.40;99.90;;;;;;5020512;28;19975;-65
2022/06/25 08:11:58;;;;;;;;;;;22.60;99.90;;;;;;5031082;28;19979;-66
2022/06/25 08:14:24;;;;;;;;;;;22.60;99.90;;;;;;5022106;28;19925;-66
2022/06/25 08:16:53;;;;;;;;;;;22.90;99.90;;;;;;5020398;28;19925;-65
2022/06/25 08:19:21;;;;;;;;;;;22.80;99.90;;;;;;5017726;28;19986;-66
2022/06/25 08:21:48;;;;;;;;;;;22.90;99.90;;;;;;5025663;28;19976;-65
2022/06/25 08:24:15;;;;;;;;;;;22.80;99.90;;;;;;5021252;28;19925;-65
2022/06/25 08:26:43;;;;;;;;;;;23.10;99.90;;;;;;5024134;28;19929;-66
2022/06/25 08:29:10;;;;;;;;;;;23.30;99.90;;;;;;5017139;28;19926;-65
2022/06/25 08:31:37;;;;;;;;;;;23.30;99.90;;;;;;5022579;28;20406;-66
2022/06/25 08:34:05;;;;;;;;;;;23.20;99.90;;;;;;5023620;28;19933;-65
2022/06/25 08:36:32;;;;;;;;;;;23.20;99.90;;;;;;5021221;28;19991;-65
2022/06/25 08:38:59;;;;;;;;;;;23.30;99.90;;;;;;5018497;28;19933;-65
2022/06/25 08:41:27;;;;;;;;;;;23.50;99.90;;;;;;5018383;28;19929;-65
2022/06/25 08:43:54;;;;;;;;;;;23.50;99.90;;;;;;5030197;28;19987;-65
2022/06/25 08:46:21;;;;;;;;;;;23.40;99.90;;;;;;5023815;28;19933;-65
2022/06/25 08:48:49;;;;;;;;;;;23.30;99.90;;;;;;5024757;28;19991;-66
2022/06/25 08:51:19;;;;;;;;;;;23.30;99.90;;;;;;5045440;28;20392;-65
2022/06/25 08:53:46;;;;;;;;;;;23.50;99.90;;;;;;5026506;28;19925;-64
2022/06/25 08:56:13;;;;;;;;;;;23.60;99.90;;;;;;5015489;28;19972;-66
2022/06/25 08:58:43;;;;;;;;;;;23.50;99.90;;;;;;5024787;28;20393;-66
2022/06/25 09:01:10;;;;;;;;;;;23.40;99.90;;;;;;5023131;28;19925;-66
2022/06/25 09:03:39;;;;;;;;;;;23.30;99.90;;;;;;5028097;28;20385;-66
2022/06/25 09:06:13;;;;;;;;;;;23.30;99.90;;;;;;5023244;28;19948;-66
2022/06/25 09:08:41;;;;;;;;;;;23.60;99.90;;;;;;5043106;28;19933;-66
2022/06/25 09:11:08;;;;;;;;;;;23.70;99.90;;;;;;5029961;28;20462;-66
2022/06/25 09:13:35;;;;;;;;;;;24.00;99.90;;;;;;5041244;28;19925;-65
2022/06/25 09:16:02;;;;;;;;;;;24.00;99.90;;;;;;5029610;28;19926;-66
2022/06/25 09:18:28;;;;;;;;;;;24.20;99.90;;;;;;5024876;28;20435;-66
2022/06/25 09:20:56;;;;;;;;;;;24.20;99.90;;;;;;5019161;28;19925;-65
2022/06/25 09:23:23;;;;;;;;;;;24.50;99.90;;;;;;5021855;28;19925;-64
2022/06/25 09:26:00;;;;;;;;;;;24.60;99.90;;;;;;5025605;28;20336;-64
2022/06/25 09:28:29;;;;;;;;;;;24.40;99.90;;;;;;5026341;28;19987;-64
2022/06/25 09:30:56;;;;;;;;;;;24.30;99.90;;;;;;5019955;28;19969;-65
2022/06/25 09:33:23;;;;;;;;;;;24.40;99.90;;;;;;5015282;28;20027;-65
2022/06/25 09:35:51;;;;;;;;;;;24.50;99.90;;;;;;5021266;28;20359;-63
2022/06/25 09:38:19;;;;;;;;;;;24.30;99.90;;;;;;5020166;28;20305;-64
2022/06/25 09:40:48;;;;;;;;;;;24.30;99.90;;;;;;5015988;28;19926;-65
2022/06/25 09:43:17;;;;;;;;;;;24.00;99.90;;;;;;5025712;28;19925;-64
2022/06/25 09:45:44;;;;;;;;;;;23.70;99.90;;;;;;5024381;28;19929;-64
2022/06/25 09:48:17;;;;;;;;;;;23.40;99.90;;;;;;5018440;28;19925;-65
2022/06/25 09:50:44;;;;;;;;;;;23.60;99.90;;;;;;5025422;28;19933;-65
2022/06/25 09:53:11;;;;;;;;;;;23.70;99.90;;;;;;5034952;28;20007;-65
2022/06/25 09:55:38;;;;;;;;;;;24.00;99.90;;;;;;5014222;28;20020;-65
2022/06/25 09:58:05;;;;;;;;;;;24.30;99.90;;;;;;5025082;28;20286;-65
2022/06/25 10:00:33;;;;;;;;;;;24.40;99.90;;;;;;5020518;28;19925;-65
2022/06/25 10:03:01;;;;;;;;;;;24.70;99.90;;;;;;5024058;28;20034;-65
2022/06/25 10:05:31;;;;;;;;;;;25.10;99.90;;;;;;5019519;28;19933;-65
2022/06/25 10:08:04;;;;;;;;;;;24.70;99.90;;;;;;5023289;28;20313;-65
2022/06/25 10:10:37;;;;;;;;;;;24.90;99.90;;;;;;5044461;28;20400;-65
2022/06/25 10:13:04;;;;;;;;;;;24.80;99.90;;;;;;5028765;28;19929;-65
2022/06/25 10:15:30;;;;;;;;;;;24.60;99.90;;;;;;5023554;28;19952;-65
2022/06/25 10:18:00;;;;;;;;;;;24.50;99.90;;;;;;5024566;28;20396;-65
2022/06/25 10:20:27;;;;;;;;;;;24.80;99.90;;;;;;5024332;28;19925;-65
2022/06/25 10:22:54;;;;;;;;;;;25.10;99.90;;;;;;5022439;28;19940;-65
2022/06/25 10:25:26;;;;;;;;;;;25.00;99.90;;;;;;5026271;28;19979;-65
2022/06/25 10:28:03;;;;;;;;;;;24.80;99.90;;;;;;5021269;28;19933;-66
2022/06/25 10:30:38;;;;;;;;;;;24.90;99.90;;;;;;5023730;28;19933;-65
2022/06/25 10:33:06;;;;;;;;;;;24.90;99.90;;;;;;5010522;28;19925;-66
2022/06/25 10:35:34;;;;;;;;;;;24.70;99.90;;;;;;5013900;28;19930;-65
2022/06/25 10:38:02;;;;;;;;;;;24.60;99.90;;;;;;5014840;28;19926;-65
2022/06/25 10:40:30;;;;;;;;;;;24.70;99.90;;;;;;5021247;28;19925;-65
2022/06/25 10:43:01;;;;;;;;;;;24.70;99.90;;;;;;5020954;28;19925;-65
2022/06/25 10:45:55;;;;;;;;;;;24.70;99.90;;;;;;5021164;28;20016;-64
2022/06/25 10:48:24;;;;;;;;;;;24.50;99.90;;;;;;5024362;28;20289;-65
2022/06/25 10:50:52;;;;;;;;;;;24.40;99.90;;;;;;5020796;28;19926;-65
2022/06/25 10:53:19;;;;;;;;;;;24.90;99.90;;;;;;5026438;28;19929;-65
2022/06/25 10:56:05;;;;;;;;;;;25.00;99.90;;;;;;5023292;28;19925;-65
2022/06/25 10:58:42;;;;;;;;;;;25.40;99.90;;;;;;5025058;28;19975;-65
2022/06/25 11:01:19;;;;;;;;;;;25.50;99.90;;;;;;5020957;28;19925;-65
2022/06/25 11:03:51;;;;;;;;;;;25.50;99.90;;;;;;5044855;28;19925;-65
2022/06/25 11:06:19;;;;;;;;;;;25.50;99.90;;;;;;5022237;28;19925;-65
2022/06/25 11:08:46;;;;;;;;;;;25.40;99.90;;;;;;5028286;28;19995;-66
2022/06/25 11:11:13;;;;;;;;;;;25.60;99.90;;;;;;5020121;28;19948;-65
2022/06/25 11:13:41;;;;;;;;;;;25.50;99.90;;;;;;5024819;28;19932;-65
2022/06/25 11:16:15;;;;;;;;;;;25.50;99.90;;;;;;5021020;28;20332;-64
2022/06/25 11:18:47;;;;;;;;;;;25.90;99.90;;;;;;5041808;28;19925;-67
2022/06/25 11:21:34;;;;;;;;;;;26.10;99.90;;;;;;5018485;28;19929;-65
2022/06/25 11:24:05;;;;;;;;;;;25.90;99.90;;;;;;5018098;28;20344;-65
2022/06/25 11:29:19;;;;;;;;;;;26.30;99.90;;;;;;5020308;28;20407;-65
2022/06/25 11:31:46;;;;;;;;;;;26.20;99.90;;;;;;5018899;28;19925;-66
2022/06/25 11:34:18;;;;;;;;;;;25.70;99.90;;;;;;5026654;28;20542;-66
2022/06/25 11:36:45;;;;;;;;;;;25.50;99.90;;;;;;5027156;28;19931;-66
2022/06/25 11:39:15;;;;;;;;;;;24.90;99.90;;;;;;5014719;28;19933;-66
2022/06/25 11:41:41;;;;;;;;;;;24.70;99.90;;;;;;5017527;28;19925;-66
2022/06/25 11:44:08;;;;;;;;;;;24.60;99.90;;;;;;5013984;28;20335;-66
2022/06/25 11:46:36;;;;;;;;;;;24.60;99.90;;;;;;5016345;28;20388;-66
2022/06/25 11:49:04;;;;;;;;;;;24.70;99.90;;;;;;5027603;28;19925;-65
2022/06/25 11:51:32;;;;;;;;;;;24.50;99.90;;;;;;5016740;28;19932;-66
2022/06/25 11:54:04;;;;;;;;;;;24.60;99.90;;;;;;5018276;28;19960;-65
2022/06/25 11:56:31;;;;;;;;;;;24.70;99.90;;;;;;5038182;28;19980;-65
2022/06/25 11:58:58;;;;;;;;;;;24.80;99.90;;;;;;5022531;28;20348;-65
2022/06/25 12:01:27;;;;;;;;;;;25.10;99.90;;;;;;5022549;28;19936;-66
2022/06/25 12:03:54;;;;;;;;;;;25.20;99.90;;;;;;5024895;28;19929;-65
2022/06/25 12:06:22;;;;;;;;;;;25.40;99.90;;;;;;5023587;28;19925;-65
2022/06/25 12:08:51;;;;;;;;;;;25.60;99.90;;;;;;5021606;28;19930;-65
2022/06/25 12:11:18;;;;;;;;;;;25.60;99.90;;;;;;5024021;28;19936;-65
2022/06/25 12:13:45;;;;;;;;;;;25.30;99.90;;;;;;5029753;28;20376;-66
2022/06/25 12:16:12;;;;;;;;;;;25.60;99.90;;;;;;5022016;28;19933;-65
2022/06/25 12:18:40;;;;;;;;;;;25.70;99.90;;;;;;5020377;28;20451;-66
2022/06/25 12:21:08;;;;;;;;;;;25.90;99.90;;;;;;5022026;28;19979;-66
2022/06/25 12:23:52;;;;;;;;;;;26.10;99.90;;;;;;5023444;28;19929;-65
2022/06/25 12:26:26;;;;;;;;;;;26.00;99.90;;;;;;5026760;28;19931;-65
2022/06/25 12:28:52;;;;;;;;;;;26.10;99.90;;;;;;5024047;28;20367;-66
2022/06/25 12:31:19;;;;;;;;;;;26.20;99.90;;;;;;5028966;28;20024;-68
2022/06/25 12:33:50;;;;;;;;;;;26.10;99.90;;;;;;5021210;28;19929;-67
2022/06/25 12:36:18;;;;;;;;;;;26.10;99.90;;;;;;5019629;28;19925;-67
2022/06/25 12:38:44;;;;;;;;;;;26.00;99.90;;;;;;5024194;28;20336;-67
2022/06/25 12:41:13;;;;;;;;;;;26.00;99.90;;;;;;5021187;28;20355;-67
2022/06/25 12:43:46;;;;;;;;;;;26.10;99.90;;;;;;5025983;28;19925;-70
2022/06/25 12:46:13;;;;;;;;;;;26.80;99.90;;;;;;5022516;28;19929;-71
2022/06/25 12:48:40;;;;;;;;;;;27.30;99.90;;;;;;5022866;28;20347;-70
2022/06/25 12:51:08;;;;;;;;;;;26.80;99.90;;;;;;5029145;28;19972;-66
2022/06/25 12:53:34;;;;;;;;;;;26.50;99.90;;;;;;5017473;28;19929;-67
2022/06/25 12:56:02;;;;;;;;;;;26.60;99.90;;;;;;5013178;28;19925;-67
2022/06/25 12:58:35;;;;;;;;;;;26.70;99.90;;;;;;5045596;28;19936;-66
2022/06/25 13:01:02;;;;;;;;;;;26.50;99.90;;;;;;5045268;28;19925;-66
2022/06/25 13:03:28;;;;;;;;;;;26.60;99.90;;;;;;5022950;28;20385;-65
2022/06/25 13:05:55;;;;;;;;;;;27.00;99.90;;;;;;5018909;28;19933;-65
2022/06/25 13:08:22;;;;;;;;;;;26.90;99.90;;;;;;5028306;28;20393;-65
2022/06/25 13:10:48;;;;;;;;;;;26.70;99.90;;;;;;5019603;28;19997;-65
2022/06/25 13:13:15;;;;;;;;;;;26.90;99.90;;;;;;5024745;28;19932;-65
2022/06/25 13:15:43;;;;;;;;;;;27.30;99.90;;;;;;5019023;28;19930;-65
2022/06/25 13:18:10;;;;;;;;;;;27.40;99.90;;;;;;5026501;28;19968;-65
2022/06/25 13:20:37;;;;;;;;;;;27.50;99.90;;;;;;5028675;28;19925;-66
2022/06/25 13:23:04;;;;;;;;;;;27.40;99.90;;;;;;5018366;28;20451;-66
2022/06/25 13:25:30;;;;;;;;;;;26.90;99.90;;;;;;5020070;28;20336;-66
2022/06/25 13:27:57;;;;;;;;;;;26.40;99.90;;;;;;5023493;28;20045;-65
2022/06/25 13:30:24;;;;;;;;;;;26.60;99.90;;;;;;5018448;28;19933;-65
2022/06/25 13:32:52;;;;;;;;;;;26.60;99.90;;;;;;5023990;28;20368;-66
2022/06/25 13:35:19;;;;;;;;;;;26.70;99.90;;;;;;5025819;28;19956;-65
2022/06/25 13:37:47;;;;;;;;;;;26.80;99.90;;;;;;5024436;28;19933;-65
2022/06/25 13:40:14;;;;;;;;;;;26.90;99.90;;;;;;5026893;28;19925;-65
2022/06/25 13:42:40;;;;;;;;;;;27.00;99.90;;;;;;5017326;28;19929;-65
2022/06/25 13:45:08;;;;;;;;;;;27.10;99.90;;;;;;5020977;28;19933;-66
2022/06/25 13:47:36;;;;;;;;;;;27.20;99.90;;;;;;5022984;28;19929;-66
2022/06/25 13:50:04;;;;;;;;;;;27.20;99.90;;;;;;5021969;28;19931;-65
2022/06/25 13:52:31;;;;;;;;;;;27.10;99.90;;;;;;5045995;28;19929;-65
2022/06/25 13:54:57;;;;;;;;;;;27.00;99.90;;;;;;5022309;28;19925;-65
2022/06/25 13:57:25;;;;;;;;;;;26.90;99.90;;;;;;5022266;28;19933;-65
2022/06/25 13:59:51;;;;;;;;;;;26.80;99.90;;;;;;5020026;28;19925;-65
2022/06/25 14:02:18;;;;;;;;;;;26.90;99.90;;;;;;5027732;28;20384;-65
2022/06/25 14:04:45;;;;;;;;;;;26.90;99.90;;;;;;5021382;28;19933;-65
2022/06/25 14:07:13;;;;;;;;;;;27.00;99.90;;;;;;5018089;28;19976;-65
2022/06/25 14:09:40;;;;;;;;;;;27.10;99.90;;;;;;5024253;28;19925;-65
2022/06/25 14:12:07;;;;;;;;;;;27.30;99.90;;;;;;5021216;28;19925;-65
2022/06/25 14:14:33;;;;;;;;;;;27.70;99.90;;;;;;5019801;28;19926;-65
2022/06/25 14:17:00;;;;;;;;;;;28.00;99.90;;;;;;5015219;28;19929;-66
2022/06/25 14:19:27;;;;;;;;;;;28.40;99.90;;;;;;5018342;28;19968;-65
2022/06/25 14:21:54;;;;;;;;;;;28.40;99.90;;;;;;5020691;28;19925;-65
2022/06/25 14:27:03;;;;;;;;;;;28.50;99.90;;;;;;5020407;28;20408;-65
2022/06/25 14:29:30;;;;;;;;;;;28.30;99.90;;;;;;5017475;28;20425;-65
2022/06/25 14:31:57;;;;;;;;;;;28.10;99.90;;;;;;5016787;28;20364;-65
2022/06/25 14:34:24;;;;;;;;;;;27.90;99.90;;;;;;5015877;28;19933;-65
2022/06/25 14:42:23;;;;;;;;;;;27.80;99.90;;;;;;5020594;28;20293;-65